Decoded Metar for LEMD (MADRID in SPAIN) (IATA:MAD) | Meteo·Mobile Aviation Weather
aviador You're here:

LEMD Decoded Metar

MADRID in SPAIN
Report Time2018-08-21 10:00:00
UTC Time2018-08-21 10:35:52
Flight Rules vfr VFR
Wind040° at 02 kt
W.Decomp.*RWY 36: 1.5 kt HW 1.3 kt RCW
RWY 32: 0.3 kt HW 2.0 kt RCW
W.Rank040° ranks 24
Current wind is below 040° avg. (5.0)
Visibility9999 m
Phenomena:N/A
Clouds:N/A
Expected CloudBase > 7,200 ft AGL from Temp-Dew spread
CeilingNone
Temp29°C (ISA +18)
Dew Point11°C (33% RH)
Heat Index28.1°C
AAT28.6°C
QNH1019 hPa
Density Alt3,924 ft
Elevation1,909 ft
Report Wrong Elevation
Raw Report
METAR LEMD 211000Z 04002KT CAVOK 29/11 Q1019 NOSIG=

Extra information for LEMD:More info

Metar Taf Metar & Taf Last 4 Metars F.Rules Stats Wind Profile Meteogram Temp Stats Airport Information Weather charts Add Link Nearby VenuesMetar ALERT Operation Metar Decoded Social comments